»·PEaware :: N228ME KBLH-KDVT

N228ME :: KBLH-KDVT

FLIGHT INFORMATION

Flight Status: Arrived
Operator: Privately registered:
United States
More flights under this callsign
Pilot: Donald B. (31773)
Aircraft: BEECH AIRCRAFT BONANZA
(BE36)
More flights by this aircraft type
Origin: KBLH Blythe
United States
Destination: KDVT Phoenix Deer Valley
United States
More flights between these airports :: More routes between these airports
Route: BLH V16 BXK
File this flight plan on PilotEdge
Remarks:
Altitude:
(Current/Filed)
7,000ft
Speed:
(Current/Filed)
165kts
Departed: 13-Jan-21 08:51 PM
Arrived: 13-Jan-21 09:43 PM
Distance/Time
Traveled:
131nm/0:52
Distance/Time
To Go:
Arrived

Flight Plot

Page will automatically refresh every two minutes.

Flight plan parsing failed; only flown route is shown


Map Options




Map Legend


Flown Route
Filed Route
Departure Airport
Arrival Airport
Navaid (VOR, NDB)
Fix

Horizontal Profiles

Position Reports

Time Latitude Longitude Heading Altitude Ground
Speed
13-Jan-21 20:24 0.000408 0.013975 0 3ft 0kts
13-Jan-21 20:25 0.000408 0.013975 0 3ft 0kts
13-Jan-21 20:26 33.614872 -114.712600 61 401ft 0kts
13-Jan-21 20:27 33.614872 -114.712600 61 401ft 0kts
13-Jan-21 20:28 33.614872 -114.712600 61 401ft 0kts
13-Jan-21 20:29 33.614872 -114.712600 61 401ft 0kts
13-Jan-21 20:30 33.614872 -114.712600 61 401ft 0kts
13-Jan-21 20:31 33.614872 -114.712600 61 401ft 0kts
13-Jan-21 20:32 33.614872 -114.712600 61 401ft 0kts
13-Jan-21 20:33 33.614872 -114.712600 61 401ft 0kts
13-Jan-21 20:34 33.614872 -114.712600 61 401ft 0kts
13-Jan-21 20:35 33.614872 -114.712600 61 401ft 0kts
13-Jan-21 20:36 33.614872 -114.712600 61 401ft 0kts
13-Jan-21 20:37 33.614872 -114.712600 61 401ft 0kts
13-Jan-21 20:38 33.614872 -114.712600 61 401ft 0kts
13-Jan-21 20:39 33.614872 -114.712600 61 401ft 0kts
13-Jan-21 20:40 33.614872 -114.712600 61 401ft 0kts
13-Jan-21 20:41 33.614872 -114.712600 61 401ft 0kts
13-Jan-21 20:42 33.614872 -114.712600 61 401ft 0kts
13-Jan-21 20:43 33.614872 -114.712600 61 401ft 0kts
13-Jan-21 20:44 33.614872 -114.712600 60 401ft 0kts
13-Jan-21 20:45 33.614872 -114.712600 60 401ft 0kts
13-Jan-21 20:46 33.614872 -114.712600 60 401ft 0kts
13-Jan-21 20:47 33.614872 -114.712600 60 401ft 0kts
13-Jan-21 20:48 33.615144 -114.708243 88 399ft 26kts
13-Jan-21 20:49 33.616524 -114.707996 271 398ft 39kts
13-Jan-21 20:50 33.615781 -114.741727 248 1058ft 142kts
13-Jan-21 20:51 33.578995 -114.746359 120 1765ft 168kts
13-Jan-21 20:52 33.582274 -114.691330 80 2469ft 170kts
13-Jan-21 20:53 33.585328 -114.634684 87 3170ft 169kts
13-Jan-21 20:54 33.584294 -114.578406 95 3871ft 168kts
13-Jan-21 20:55 33.580274 -114.524526 92 4567ft 156kts
13-Jan-21 20:56 33.576882 -114.475303 91 5693ft 123kts
13-Jan-21 20:57 33.574070 -114.433472 91 6632ft 127kts
13-Jan-21 20:58 33.570856 -114.386507 92 7000ft 159kts
13-Jan-21 20:59 33.566944 -114.329973 92 7025ft 175kts
13-Jan-21 21:00 33.562976 -114.272376 92 7001ft 170kts
13-Jan-21 21:01 33.559048 -114.216267 92 7080ft 164kts
13-Jan-21 21:02 33.555178 -114.161282 92 7120ft 167kts
13-Jan-21 21:03 33.551227 -114.105497 92 7127ft 168kts
13-Jan-21 21:04 33.547244 -114.049720 92 7107ft 167kts
13-Jan-21 21:05 33.543252 -113.993987 92 7106ft 167kts
13-Jan-21 21:07 33.539247 -113.938337 92 7112ft 168kts
13-Jan-21 21:08 33.535164 -113.882169 92 7107ft 169kts
13-Jan-21 21:09 33.531068 -113.826203 92 7098ft 167kts
13-Jan-21 21:10 33.526938 -113.770271 92 7102ft 169kts
13-Jan-21 21:11 33.522783 -113.714153 92 7096ft 168kts
13-Jan-21 21:12 33.518632 -113.658438 92 7093ft 168kts
13-Jan-21 21:13 33.514438 -113.602619 92 7090ft 168kts
13-Jan-21 21:14 33.510227 -113.546668 92 7091ft 168kts
13-Jan-21 21:15 33.505996 -113.490902 93 7087ft 167kts
13-Jan-21 21:16 33.501744 -113.435169 93 7097ft 168kts
13-Jan-21 21:17 33.497411 -113.379010 92 7093ft 169kts
13-Jan-21 21:18 33.493080 -113.322986 92 7087ft 168kts
13-Jan-21 21:19 33.488742 -113.267111 92 7084ft 167kts
13-Jan-21 21:20 33.484462 -113.212252 92 7083ft 164kts
13-Jan-21 21:21 33.480208 -113.158097 92 7083ft 163kts
13-Jan-21 21:21 33.476639 -113.112957 92 7083ft 163kts
13-Jan-21 21:23 33.471605 -113.049646 92 7085ft 163kts
13-Jan-21 21:24 33.461323 -112.996358 97 7086ft 164kts
13-Jan-21 21:24 33.455239 -112.951291 96 7086ft 164kts
13-Jan-21 21:26 33.450239 -112.887888 90 7101ft 163kts
13-Jan-21 21:26 33.448288 -112.842732 88 7096ft 162kts
13-Jan-21 21:27 33.464125 -112.793461 65 7097ft 159kts
13-Jan-21 21:28 33.482220 -112.745163 60 7114ft 158kts
13-Jan-21 21:29 33.502428 -112.698240 60 7116ft 158kts
13-Jan-21 21:30 33.523209 -112.650632 60 7002ft 162kts
13-Jan-21 21:31 33.544009 -112.603199 60 6986ft 159kts
13-Jan-21 21:32 33.564550 -112.556299 60 6984ft 158kts
13-Jan-21 21:33 33.585130 -112.509284 60 7002ft 160kts
13-Jan-21 21:34 33.606028 -112.461945 60 6988ft 162kts
13-Jan-21 21:35 33.627385 -112.414124 60 6986ft 163kts
13-Jan-21 21:36 33.649131 -112.366111 57 6986ft 163kts
13-Jan-21 21:37 33.670900 -112.315620 63 6306ft 173kts
13-Jan-21 21:38 33.680621 -112.258743 85 5232ft 181kts
13-Jan-21 21:39 33.683105 -112.200148 87 3928ft 171kts
13-Jan-21 21:40 33.685197 -112.143688 87 2714ft 155kts
13-Jan-21 21:41 33.686389 -112.104014 85 1764ft 98kts
13-Jan-21 21:42 33.686435 -112.086402 141 1457ft 12kts
13-Jan-21 21:43 33.685969 -112.086202 170 1458ft 0kts

Navigation Log

Ident Type
Flight plan parsing failed, navigation log unavailable